Time;durP1;ratioP1;P1;durP2;ratioP2;P2;SDS_P1;SDS_P2;PMS_P1;PMS_P2;Temp;Humidity;BMP_temperature;BMP_pressure;BME280_temperature;BME280_humidity;BME280_pressure;Samples;Min_cycle;Max_cycle;Signal;HPM_P1;HPM_P2
2023/06/09 00:01:12;;;;;;;;;25.33;23.67;;;;;22.42;48.31;100708.59;5094612;27;45386;-70
2023/06/09 00:03:40;;;;;;;;;31.67;26.00;;;;;22.32;48.12;100689.09;5087495;27;45341;-69
2023/06/09 00:06:08;;;;;;;;;25.00;25.00;;;;;22.30;48.91;100697.22;5092355;27;45531;-69
2023/06/09 00:08:35;;;;;;;;;29.33;29.33;;;;;22.30;49.11;100699.91;5087016;27;45424;-70
2023/06/09 00:11:00;;;;;;;;;26.67;24.67;;;;;22.27;49.94;100700.00;5092100;27;45443;-70
2023/06/09 00:13:25;;;;;;;;;26.00;24.67;;;;;22.19;47.64;100683.16;5087594;27;45376;-70
2023/06/09 00:15:51;;;;;;;;;27.33;25.00;;;;;22.21;48.72;100685.78;5088215;27;51021;-70
2023/06/09 00:18:16;;;;;;;;;28.67;24.33;;;;;21.65;48.97;100598.34;5087080;27;45415;-70
2023/06/09 00:20:42;;;;;;;;;21.33;21.00;;;;;22.07;50.15;100678.03;5092917;27;45519;-70
2023/06/09 00:23:08;;;;;;;;;27.00;26.33;;;;;22.03;50.50;100676.34;5087818;27;47469;-70
2023/06/09 00:25:35;;;;;;;;;34.67;28.33;;;;;22.12;50.51;100695.84;5092491;27;45450;-69
2023/06/09 00:28:01;;;;;;;;;26.00;26.00;;;;;22.05;48.59;100691.53;5090796;27;45214;-69
2023/06/09 00:30:26;;;;;;;;;25.33;24.33;;;;;22.02;48.78;100691.63;5093290;27;45599;-70
2023/06/09 00:32:51;;;;;;;;;26.67;25.33;;;;;22.07;50.63;100700.47;5087242;27;45259;-70
2023/06/09 00:35:17;;;;;;;;;28.67;28.67;;;;;21.94;51.38;100680.16;5092488;27;45327;-70
2023/06/09 00:37:42;;;;;;;;;24.67;22.33;;;;;21.78;51.12;100666.16;5092327;27;45441;-70
2023/06/09 00:40:08;;;;;;;;;27.33;27.33;;;;;21.90;51.38;100694.59;5094873;27;45320;-70
2023/06/09 00:42:34;;;;;;;;;28.67;26.67;;;;;21.85;51.07;100680.38;5090685;27;47059;-70
2023/06/09 00:44:59;;;;;;;;;27.00;24.33;;;;;21.84;51.02;100673.22;5093204;27;45440;-70
2023/06/09 00:47:26;;;;;;;;;24.33;22.67;;;;;21.87;50.84;100675.81;5087706;27;45506;-70
2023/06/09 00:49:52;;;;;;;;;30.67;29.67;;;;;21.87;51.46;100681.22;5094247;27;45432;-70
2023/06/09 00:52:18;;;;;;;;;28.67;26.00;;;;;21.77;51.71;100675.19;5095945;27;45339;-70
2023/06/09 00:54:44;;;;;;;;;28.67;27.67;;;;;21.80;51.61;100683.16;5094038;27;45416;-69
2023/06/09 00:57:10;;;;;;;;;27.67;26.67;;;;;21.71;50.69;100653.81;5100596;27;45272;-69
2023/06/09 00:59:36;;;;;;;;;33.00;29.67;;;;;21.74;52.79;100664.50;5090582;27;45433;-70
2023/06/09 01:02:05;;;;;;;;;26.33;26.33;;;;;21.76;51.33;100670.72;5086587;27;46035;-70
2023/06/09 01:04:32;;;;;;;;;25.00;24.00;;;;;21.58;51.78;100638.88;5093637;27;46855;-70
2023/06/09 01:07:25;;;;;;;;;29.33;26.00;;;;;21.74;51.20;100660.91;5090501;27;45174;-70
2023/06/09 01:10:13;;;;;;;;;30.67;28.00;;;;;21.70;51.16;100668.16;5091056;27;45302;-70
2023/06/09 01:13:02;;;;;;;;;29.67;26.33;;;;;21.70;50.50;100661.91;5093015;27;45382;-70
2023/06/09 01:15:31;;;;;;;;;30.67;29.67;;;;;21.62;49.84;100657.59;5091567;27;45372;-70
2023/06/09 01:18:02;;;;;;;;;24.00;23.00;;;;;21.59;51.95;100657.69;5094761;27;45256;-70
2023/06/09 01:20:49;;;;;;;;;33.67;30.00;;;;;21.58;50.83;100657.69;5091273;27;45238;-70
2023/06/09 01:23:41;;;;;;;;;30.33;29.00;;;;;21.55;51.51;100653.28;5097205;27;45707;-70
2023/06/09 01:26:07;;;;;;;;;30.00;27.33;;;;;21.32;52.59;100616.13;5074187;27;45572;-70
2023/06/09 01:28:34;;;;;;;;;27.67;26.33;;;;;21.49;52.71;100647.16;5097829;27;45393;-70
2023/06/09 01:31:01;;;;;;;;;27.33;25.00;;;;;21.40;52.70;100640.19;5091309;27;45367;-70
2023/06/09 01:33:27;;;;;;;;;26.33;24.67;;;;;21.33;53.09;100628.63;5097848;27;46292;-70
2023/06/09 01:35:54;;;;;;;;;30.67;29.33;;;;;21.39;52.71;100647.34;5092431;27;45414;-70
2023/06/09 01:38:21;;;;;;;;;29.00;27.67;;;;;21.33;52.34;100636.72;5091562;27;45446;-70
2023/06/09 01:40:47;;;;;;;;;28.00;25.00;;;;;21.32;52.75;100640.31;5093469;27;45472;-70
2023/06/09 01:43:13;;;;;;;;;24.67;22.67;;;;;21.26;51.86;100632.41;5097443;27;45351;-70
2023/06/09 01:45:38;;;;;;;;;30.33;26.00;;;;;21.21;53.33;100637.88;5091022;27;45331;-70
2023/06/09 01:48:19;;;;;;;;;27.67;26.00;;;;;21.09;50.84;100619.34;5090004;27;45318;-70
2023/06/09 01:51:05;;;;;;;;;26.33;25.33;;;;;21.16;52.59;100641.56;5093832;27;45363;-70
2023/06/09 01:53:47;;;;;;;;;26.00;26.00;;;;;21.10;52.10;100629.16;5096332;27;45451;-69
2023/06/09 01:56:24;;;;;;;;;27.00;24.33;;;;;21.00;52.31;100617.75;5081562;27;45412;-69
2023/06/09 01:58:55;;;;;;;;;26.00;25.00;;;;;20.97;52.50;100612.41;5093140;27;45476;-69
2023/06/09 02:01:22;;;;;;;;;25.67;23.33;;;;;21.06;52.63;100626.56;5089138;27;45476;-69
2023/06/09 02:03:52;;;;;;;;;30.33;28.33;;;;;20.98;53.28;100627.63;5095284;27;45319;-69
2023/06/09 02:06:20;;;;;;;;;29.67;26.00;;;;;20.97;52.06;100624.97;5095431;27;45373;-70
2023/06/09 02:08:46;;;;;;;;;32.00;29.67;;;;;20.95;51.56;100637.56;5095205;27;45271;-69
2023/06/09 02:11:11;;;;;;;;;29.00;27.00;;;;;20.88;53.26;100626.03;5085131;27;45381;-70
2023/06/09 02:13:37;;;;;;;;;24.33;24.33;;;;;20.85;53.92;100628.78;5097171;27;45703;-69
2023/06/09 02:16:03;;;;;;;;;34.00;30.67;;;;;20.86;54.74;100637.72;5089362;27;45351;-69
2023/06/09 02:18:28;;;;;;;;;28.67;28.33;;;;;20.86;54.62;100640.41;5098294;27;46475;-69
2023/06/09 02:20:53;;;;;;;;;30.67;28.00;;;;;20.76;53.11;100616.44;5088693;27;45502;-69
2023/06/09 02:23:21;;;;;;;;;25.67;24.67;;;;;20.78;54.43;100616.38;5091944;27;45408;-69
2023/06/09 02:25:47;;;;;;;;;27.33;26.67;;;;;20.80;54.58;100625.31;5089782;27;45285;-69
2023/06/09 02:28:13;;;;;;;;;28.00;27.00;;;;;20.78;51.79;100637.88;5092155;27;45254;-69
2023/06/09 02:30:39;;;;;;;;;29.00;27.00;;;;;20.71;54.93;100631.75;5092062;27;46218;-69
2023/06/09 02:33:05;;;;;;;;;28.67;25.33;;;;;20.70;53.22;100615.69;5095684;27;47191;-69
2023/06/09 02:35:31;;;;;;;;;29.00;27.33;;;;;20.63;54.54;100614.91;5091131;27;46598;-69
2023/06/09 02:37:57;;;;;;;;;26.00;25.67;;;;;20.61;55.16;100619.41;5090046;27;45337;-69
2023/06/09 02:40:26;;;;;;;;;31.67;27.00;;;;;20.51;55.26;100613.31;5091478;27;45428;-69
2023/06/09 02:42:51;;;;;;;;;36.00;30.00;;;;;20.51;54.38;100610.63;5082380;27;46304;-69
2023/06/09 02:45:16;;;;;;;;;31.00;30.00;;;;;20.46;54.70;100609.84;5087776;27;47721;-69
2023/06/09 02:47:42;;;;;;;;;31.67;28.00;;;;;20.48;55.20;100616.06;5084572;27;45489;-69
2023/06/09 02:50:08;;;;;;;;;30.00;28.00;;;;;20.27;54.51;100584.25;5090246;27;45366;-69
2023/06/09 02:52:34;;;;;;;;;27.33;26.00;;;;;20.32;55.14;100602.03;5091398;27;45538;-69
2023/06/09 02:55:00;;;;;;;;;30.33;30.33;;;;;20.26;55.44;100591.44;5091973;27;45520;-69
2023/06/09 02:57:29;;;;;;;;;28.33;26.67;;;;;20.32;55.35;100610.09;5090894;27;45464;-69
2023/06/09 02:59:54;;;;;;;;;29.67;25.00;;;;;20.30;55.64;100609.22;5089694;27;45373;-69
2023/06/09 03:02:20;;;;;;;;;29.67;28.33;;;;;20.20;56.01;100593.34;5088807;27;45263;-69
2023/06/09 03:04:46;;;;;;;;;29.33;29.00;;;;;20.25;55.09;100605.78;5088452;27;45570;-69
2023/06/09 03:07:14;;;;;;;;;32.00;30.00;;;;;20.18;55.03;100605.91;5088692;27;45211;-71
2023/06/09 03:09:40;;;;;;;;;32.00;29.33;;;;;20.18;56.00;100613.97;5088257;27;45503;-71
2023/06/09 03:12:06;;;;;;;;;30.00;29.00;;;;;20.11;55.45;100605.16;5090261;27;46373;-71
2023/06/09 03:14:32;;;;;;;;;31.33;29.33;;;;;20.02;54.44;100599.94;5084900;27;45359;-70
2023/06/09 03:16:58;;;;;;;;;29.00;27.00;;;;;20.08;54.35;100619.50;5085945;27;45350;-71
2023/06/09 03:19:23;;;;;;;;;30.67;27.67;;;;;20.07;54.94;100616.84;5081531;27;45315;-71
2023/06/09 03:21:49;;;;;;;;;32.67;29.00;;;;;20.03;55.40;100617.81;5081522;27;45496;-70
2023/06/09 03:24:14;;;;;;;;;33.33;29.33;;;;;19.96;56.78;100613.47;5085612;27;45420;-71
2023/06/09 03:26:40;;;;;;;;;27.00;26.00;;;;;19.90;56.14;100601.03;5094285;27;45263;-71
2023/06/09 03:29:05;;;;;;;;;31.00;27.33;;;;;19.94;55.40;100609.91;5086569;27;46389;-70
2023/06/09 03:31:30;;;;;;;;;28.33;26.00;;;;;19.92;55.27;100618.00;5091542;27;50689;-71
2023/06/09 03:33:56;;;;;;;;;32.33;27.33;;;;;19.88;53.92;100610.91;5085569;27;45271;-71
2023/06/09 03:36:23;;;;;;;;;28.00;26.67;;;;;19.85;56.34;100603.78;5089105;27;45555;-71
2023/06/09 03:38:49;;;;;;;;;28.67;26.67;;;;;19.87;56.67;100612.69;5086038;27;45360;-70
2023/06/09 03:41:14;;;;;;;;;29.00;27.33;;;;;19.82;56.88;100611.00;5087644;27;45406;-70
2023/06/09 03:43:40;;;;;;;;;32.00;29.00;;;;;19.83;57.10;100618.16;5092359;27;45354;-70
2023/06/09 03:46:05;;;;;;;;;28.33;26.00;;;;;19.73;57.19;100598.63;5094399;27;45488;-71
2023/06/09 03:48:30;;;;;;;;;25.33;24.67;;;;;19.79;56.90;100611.94;5089909;27;45537;-71
2023/06/09 03:50:56;;;;;;;;;31.00;28.00;;;;;19.75;55.27;100599.50;5090517;27;45496;-71
2023/06/09 03:53:22;;;;;;;;;22.00;22.00;;;;;19.60;57.20;100592.53;5084415;27;45455;-71
2023/06/09 03:55:48;;;;;;;;;32.00;30.00;;;;;19.60;57.83;100597.91;5092805;27;45353;-71
2023/06/09 03:58:13;;;;;;;;;30.00;27.67;;;;;19.67;56.02;100609.47;5087068;27;45328;-70
2023/06/09 04:00:39;;;;;;;;;27.67;27.67;;;;;19.56;57.48;100592.63;5084864;27;45439;-71
2023/06/09 04:03:04;;;;;;;;;27.33;26.00;;;;;19.66;56.10;100608.59;5093404;27;45271;-71
2023/06/09 04:05:29;;;;;;;;;32.00;28.33;;;;;19.66;54.80;100610.34;5090709;27;45213;-70
2023/06/09 04:07:55;;;;;;;;;29.33;28.00;;;;;19.61;56.71;100594.31;5088594;27;44856;-71
2023/06/09 04:10:20;;;;;;;;;28.67;27.33;;;;;19.55;56.60;100594.44;5093367;27;45488;-71
2023/06/09 04:12:46;;;;;;;;;34.00;28.33;;;;;19.66;57.56;100605.00;5092458;27;45413;-70
2023/06/09 04:15:11;;;;;;;;;31.00;30.67;;;;;19.62;56.83;100605.94;5084665;27;45471;-70
2023/06/09 04:17:37;;;;;;;;;33.00;30.67;;;;;19.66;56.80;100605.91;5085418;27;45520;-70
2023/06/09 04:20:07;;;;;;;;;28.00;26.67;;;;;19.62;56.20;100589.84;5088078;27;48159;-70
2023/06/09 04:22:33;;;;;;;;;25.67;25.67;;;;;19.59;57.60;100592.59;5082048;27;45421;-71
2023/06/09 04:24:58;;;;;;;;;30.33;29.00;;;;;19.50;56.56;100588.25;5088926;27;45472;-70
2023/06/09 04:27:25;;;;;;;;;31.00;29.00;;;;;19.60;57.16;100602.38;5082194;27;45511;-70
2023/06/09 04:29:51;;;;;;;;;27.67;26.67;;;;;19.56;56.66;100598.00;5092379;27;45351;-71
2023/06/09 04:32:16;;;;;;;;;29.00;26.67;;;;;19.40;58.01;100574.09;5088850;27;45290;-70
2023/06/09 04:34:45;;;;;;;;;26.67;26.33;;;;;19.59;55.99;100609.53;5087981;27;45905;-70
2023/06/09 04:37:12;;;;;;;;;29.00;27.33;;;;;19.47;57.06;100593.66;5093334;27;45440;-70
2023/06/09 04:39:45;;;;;;;;;29.67;26.00;;;;;19.49;57.11;100597.19;5087778;27;45358;-69
2023/06/09 04:42:14;;;;;;;;;28.00;24.33;;;;;19.52;56.72;100610.56;5083868;27;45468;-69
2023/06/09 04:44:39;;;;;;;;;27.33;25.33;;;;;19.59;57.00;100611.34;5091493;27;45421;-69
2023/06/09 04:47:05;;;;;;;;;29.00;28.67;;;;;19.52;57.42;100609.66;5095547;27;46179;-70
2023/06/09 04:49:31;;;;;;;;;31.00;27.67;;;;;19.53;57.03;100608.78;5082759;27;46281;-69
2023/06/09 04:51:59;;;;;;;;;28.00;27.33;;;;;19.52;55.42;100605.22;5082928;27;45172;-69
2023/06/09 04:54:25;;;;;;;;;33.67;30.00;;;;;19.58;57.30;100620.31;5091797;27;45374;-69
2023/06/09 04:56:57;;;;;;;;;24.33;24.00;;;;;19.53;56.69;100617.69;5085002;27;45386;-68
2023/06/09 04:59:24;;;;;;;;;29.00;27.00;;;;;19.54;55.99;100616.78;5094158;27;45537;-69
2023/06/09 05:01:51;;;;;;;;;29.33;28.33;;;;;19.61;57.45;100634.56;5089337;27;45378;-69
2023/06/09 05:04:17;;;;;;;;;34.67;30.33;;;;;19.63;57.07;100634.50;5093907;27;45522;-70
2023/06/09 05:06:42;;;;;;;;;29.33;27.00;;;;;19.55;56.46;100620.34;5092459;27;45348;-69
2023/06/09 05:09:08;;;;;;;;;29.33;27.67;;;;;19.61;56.58;100625.63;5084813;27;45438;-72
2023/06/09 05:11:34;;;;;;;;;27.00;27.00;;;;;19.37;56.93;100589.34;5095792;27;45308;-72
2023/06/09 05:13:59;;;;;;;;;33.33;30.00;;;;;19.61;57.10;100620.25;5085025;27;45304;-72
2023/06/09 05:16:28;;;;;;;;;29.33;26.33;;;;;19.55;55.93;100607.84;5091999;27;45369;-72
2023/06/09 05:18:56;;;;;;;;;34.67;31.33;;;;;19.58;56.35;100609.59;5095002;27;46623;-72
2023/06/09 05:21:24;;;;;;;;;28.33;27.67;;;;;19.66;57.10;100630.03;5087672;27;45317;-73
2023/06/09 05:23:50;;;;;;;;;32.33;30.00;;;;;19.70;57.41;100622.81;5084557;27;45403;-72
2023/06/09 05:26:16;;;;;;;;;30.33;29.67;;;;;19.63;57.50;100602.34;5089990;27;45298;-72
2023/06/09 05:28:42;;;;;;;;;32.00;27.67;;;;;19.72;57.26;100610.28;5087617;27;46221;-72
2023/06/09 05:31:07;;;;;;;;;29.33;27.33;;;;;19.81;57.17;100625.34;5090109;27;45420;-72
2023/06/09 05:33:33;;;;;;;;;30.67;26.33;;;;;19.72;56.22;100612.97;5089599;27;45429;-72
2023/06/09 05:35:58;;;;;;;;;30.67;29.67;;;;;19.80;56.94;100618.19;5090234;27;45476;-72
2023/06/09 05:38:25;;;;;;;;;28.67;27.00;;;;;19.91;57.11;100632.31;5084873;27;45376;-72
2023/06/09 05:40:54;;;;;;;;;24.67;24.67;;;;;19.83;55.43;100612.78;5090978;27;45346;-71
2023/06/09 05:43:19;;;;;;;;;30.00;28.33;;;;;19.96;55.07;100635.78;5084707;27;45543;-71
2023/06/09 05:45:44;;;;;;;;;29.67;28.33;;;;;19.87;56.34;100614.50;5092165;27;45432;-72
2023/06/09 05:48:09;;;;;;;;;30.00;27.67;;;;;20.03;56.85;100645.53;5096606;27;46036;-72
2023/06/09 05:50:37;;;;;;;;;27.33;26.00;;;;;20.07;55.86;100641.88;5089618;27;45279;-71
2023/06/09 05:53:03;;;;;;;;;27.67;26.33;;;;;20.08;54.97;100640.06;5098240;27;45313;-72
2023/06/09 05:55:28;;;;;;;;;26.00;25.33;;;;;20.15;55.51;100649.78;5086155;27;45172;-71
2023/06/09 05:57:53;;;;;;;;;29.33;29.00;;;;;20.12;54.62;100641.78;5094464;27;49979;-71
2023/06/09 06:00:19;;;;;;;;;25.33;24.33;;;;;20.19;55.51;100648.81;5088139;27;53024;-72
2023/06/09 06:02:45;;;;;;;;;26.33;25.33;;;;;20.13;55.75;100636.38;5099131;27;45548;-72
2023/06/09 06:05:12;;;;;;;;;28.00;27.67;;;;;20.22;55.51;100646.09;5079399;27;45613;-69
2023/06/09 06:07:38;;;;;;;;;25.33;24.67;;;;;20.32;55.08;100652.19;5094107;27;46062;-72
2023/06/09 06:10:05;;;;;;;;;26.00;25.00;;;;;20.43;55.03;100654.66;5088932;27;45391;-72
2023/06/09 06:12:32;;;;;;;;;26.33;23.33;;;;;20.39;55.00;100643.09;5091718;27;45258;-72
2023/06/09 06:14:57;;;;;;;;;27.33;25.67;;;;;20.51;54.33;100648.22;5088237;27;45356;-72
2023/06/09 06:17:23;;;;;;;;;27.00;25.67;;;;;20.46;54.19;100634.00;5089706;27;45908;-72
2023/06/09 06:19:50;;;;;;;;;25.67;24.33;;;;;20.64;54.18;100648.03;5083902;27;45250;-71
2023/06/09 06:22:15;;;;;;;;;27.00;26.00;;;;;20.73;54.07;100642.50;5085224;27;45263;-72
2023/06/09 06:24:40;;;;;;;;;31.33;26.67;;;;;20.79;53.63;100637.00;5089086;27;45378;-70
2023/06/09 06:27:06;;;;;;;;;32.00;26.00;;;;;20.93;53.49;100625.97;5085327;27;45373;-70
2023/06/09 06:29:32;;;;;;;;;29.00;27.33;;;;;21.17;52.91;100635.28;5088379;27;45240;-69
2023/06/09 06:31:57;;;;;;;;;25.33;23.00;;;;;21.43;52.61;100638.31;5086960;27;45286;-70
2023/06/09 06:34:24;;;;;;;;;25.67;25.67;;;;;21.61;52.04;100626.22;5095670;27;45329;-70
2023/06/09 06:36:49;;;;;;;;;22.67;21.67;;;;;21.88;51.54;100624.66;5097000;27;45606;-71
2023/06/09 06:39:15;;;;;;;;;29.67;24.67;;;;;22.19;50.83;100633.81;5087575;27;45481;-71
2023/06/09 06:41:40;;;;;;;;;24.00;24.00;;;;;22.46;51.02;100630.38;5092587;27;45382;-71
2023/06/09 06:44:05;;;;;;;;;25.67;24.00;;;;;22.66;49.37;100621.72;5091682;27;45623;-70
2023/06/09 06:46:31;;;;;;;;;24.33;24.33;;;;;22.96;49.59;100622.66;5099186;27;46888;-71
2023/06/09 06:48:57;;;;;;;;;27.33;22.33;;;;;23.33;49.32;100632.34;5087341;27;45500;-71
2023/06/09 06:51:22;;;;;;;;;23.00;21.33;;;;;23.57;48.24;100619.00;5096329;27;45464;-71
2023/06/09 06:53:47;;;;;;;;;24.00;22.00;;;;;23.88;47.39;100619.78;5084154;27;45314;-72
2023/06/09 06:56:13;;;;;;;;;28.33;26.00;;;;;24.19;46.77;100624.13;5084726;27;45953;-72
2023/06/09 06:58:38;;;;;;;;;25.00;21.67;;;;;24.52;48.08;100632.91;5088220;27;45239;-71
2023/06/09 07:01:04;;;;;;;;;27.00;23.67;;;;;24.60;45.19;100613.72;5087306;27;45478;-71
2023/06/09 07:03:29;;;;;;;;;30.00;27.67;;;;;24.96;45.12;100626.81;5084632;27;45455;-71
2023/06/09 07:05:55;;;;;;;;;23.67;22.33;;;;;25.20;45.13;100630.41;5090160;27;46234;-71
2023/06/09 07:08:20;;;;;;;;;24.67;21.67;;;;;25.40;44.00;100635.03;5082288;27;45369;-71
2023/06/09 07:10:46;;;;;;;;;22.00;18.33;;;;;25.58;44.03;100625.31;5086625;27;45443;-72
2023/06/09 07:13:11;;;;;;;;;19.00;18.00;;;;;25.85;45.72;100628.72;5092799;27;45304;-72
2023/06/09 07:15:38;;;;;;;;;23.67;19.33;;;;;26.09;44.58;100632.22;5088708;27;45926;-72
2023/06/09 07:18:05;;;;;;;;;19.33;16.33;;;;;26.34;44.47;100632.03;5111298;27;45306;-71
2023/06/09 07:20:30;;;;;;;;;23.00;21.00;;;;;26.42;42.09;100615.44;5089424;27;45288;-71
2023/06/09 07:22:56;;;;;;;;;21.67;20.33;;;;;26.72;43.43;100633.09;5094623;27;46278;-72
2023/06/09 07:25:21;;;;;;;;;25.33;21.00;;;;;26.94;43.05;100641.13;5090884;27;47402;-71
2023/06/09 07:27:47;;;;;;;;;21.33;21.00;;;;;27.03;42.19;100623.53;5084629;27;45168;-72
2023/06/09 07:30:12;;;;;;;;;23.00;19.00;;;;;27.36;40.83;100659.09;5087234;27;45429;-71
2023/06/09 07:32:39;;;;;;;;;22.67;21.00;;;;;27.55;40.10;100650.03;5083738;27;45769;-72
2023/06/09 07:35:04;;;;;;;;;19.00;19.00;;;;;27.75;41.15;100652.66;5091436;27;45353;-71
2023/06/09 07:37:31;;;;;;;;;25.67;19.33;;;;;27.93;38.82;100658.19;5096629;27;45538;-72
2023/06/09 07:39:56;;;;;;;;;19.33;19.33;;;;;28.04;38.45;100659.38;5092759;27;45347;-72
2023/06/09 07:42:22;;;;;;;;;19.67;18.33;;;;;28.12;40.31;100650.84;5086044;27;45362;-72
2023/06/09 07:44:47;;;;;;;;;21.67;20.67;;;;;28.31;37.29;100658.91;5089447;27;45326;-71
2023/06/09 07:47:12;;;;;;;;;21.33;19.00;;;;;28.39;39.78;100648.53;5093458;27;45475;-72
2023/06/09 07:49:38;;;;;;;;;20.33;20.00;;;;;28.58;37.10;100636.72;5085683;27;47918;-72
2023/06/09 07:52:04;;;;;;;;;23.33;21.33;;;;;28.77;36.74;100638.38;5092639;27;45344;-72
2023/06/09 07:54:30;;;;;;;;;23.33;21.33;;;;;29.07;36.18;100650.41;5084851;27;46227;-72
2023/06/09 07:56:55;;;;;;;;;20.67;20.33;;;;;29.23;35.87;100640.44;5090143;27;45250;-73
2023/06/09 07:59:21;;;;;;;;;24.00;20.25;;;;;29.43;35.71;100645.63;5085406;27;45242;-72
2023/06/09 08:01:46;;;;;;;;;25.67;25.67;;;;;29.54;36.79;100639.56;5093550;27;45450;-71
2023/06/09 08:04:12;;;;;;;;;22.00;22.00;;;;;29.62;35.11;100617.34;5090238;27;45467;-72
2023/06/09 08:06:38;;;;;;;;;19.25;18.50;;;;;29.86;35.22;100629.56;5090618;27;45366;-72
2023/06/09 08:09:04;;;;;;;;;19.50;18.25;;;;;29.84;34.08;100609.69;5081642;27;46932;-73
2023/06/09 08:11:29;;;;;;;;;17.50;17.00;;;;;30.29;33.15;100632.47;5087395;27;45404;-71
2023/06/09 08:13:54;;;;;;;;;16.50;15.00;;;;;30.29;35.26;100599.75;5090863;27;46629;-71
2023/06/09 08:16:20;;;;;;;;;23.00;21.00;;;;;30.66;33.22;100619.28;5093486;27;45477;-73
2023/06/09 08:18:45;;;;;;;;;23.50;20.25;;;;;30.99;34.98;100627.25;5089226;27;45620;-73
2023/06/09 08:21:11;;;;;;;;;20.50;20.50;;;;;31.12;33.93;100610.09;5090420;27;45477;-73
2023/06/09 08:23:37;;;;;;;;;20.50;20.50;;;;;31.31;33.38;100615.22;5090049;27;46278;-73
2023/06/09 08:26:02;;;;;;;;;23.25;20.25;;;;;31.40;32.95;100614.66;5087222;27;45394;-73
2023/06/09 08:28:28;;;;;;;;;21.00;18.00;;;;;31.36;31.98;100619.44;5091462;27;45343;-73
2023/06/09 08:30:53;;;;;;;;;21.00;20.00;;;;;31.70;31.90;100611.72;5088349;27;45301;-73
2023/06/09 08:33:19;;;;;;;;;18.25;17.00;;;;;31.94;31.44;100620.16;5091793;27;46328;-74
2023/06/09 08:35:44;;;;;;;;;18.25;18.25;;;;;32.18;33.90;100608.50;5090480;27;45318;-73
2023/06/09 08:38:09;;;;;;;;;23.75;21.75;;;;;32.25;32.67;100607.13;5079573;27;45457;-72
2023/06/09 08:40:35;;;;;;;;;20.50;19.25;;;;;32.47;30.75;100610.13;5090875;27;45232;-72
2023/06/09 08:43:03;;;;;;;;;22.75;19.25;;;;;32.74;31.36;100612.78;5085497;27;53869;-72
2023/06/09 08:45:32;;;;;;;;;23.00;21.75;;;;;32.94;30.67;100594.91;5108985;27;45504;-73
2023/06/09 08:48:00;;;;;;;;;24.25;21.25;;;;;33.10;31.77;100599.28;5095571;27;45451;-72
2023/06/09 08:50:28;;;;;;;;;15.50;15.50;;;;;33.27;31.56;100584.34;5088621;27;45231;-73
2023/06/09 08:52:55;;;;;;;;;22.25;19.50;;;;;33.59;32.03;100603.91;5095658;27;45505;-73
2023/06/09 08:55:21;;;;;;;;;21.60;19.80;;;;;33.71;31.10;100580.16;5091689;27;45384;-73
2023/06/09 08:57:47;;;;;;;;;19.00;18.50;;;;;33.98;31.30;100597.25;5092438;27;45431;-72
2023/06/09 09:00:12;;;;;;;;;18.75;18.25;;;;;34.10;29.27;100587.22;5090387;27;45527;-73
2023/06/09 09:02:38;;;;;;;;;18.50;16.50;;;;;34.37;30.40;100594.31;5090513;27;46165;-72
2023/06/09 09:05:04;;;;;;;;;21.75;20.75;;;;;34.64;28.73;100594.00;5089982;27;45406;-74
2023/06/09 09:07:29;;;;;;;;;19.50;18.50;;;;;34.88;28.24;100585.66;5087939;27;45360;-74
2023/06/09 09:09:55;;;;;;;;;17.00;17.00;;;;;35.07;27.66;100591.44;5089699;27;45508;-72
2023/06/09 09:12:20;;;;;;;;;19.50;18.25;;;;;35.17;27.88;100597.91;5099968;27;45500;-73
2023/06/09 09:14:47;;;;;;;;;25.00;19.25;;;;;35.37;29.10;100596.25;5091832;27;45398;-73
2023/06/09 09:17:14;;;;;;;;;22.20;21.00;;;;;35.51;28.03;100586.84;5094635;27;45351;-73
2023/06/09 09:19:48;;;;;;;;;17.25;16.00;;;;;35.59;28.20;100595.34;5092565;27;45536;-72
2023/06/09 09:22:14;;;;;;;;;22.40;21.20;;;;;35.69;27.60;100591.84;5095177;27;47101;-72
2023/06/09 09:24:43;;;;;;;;;17.20;17.00;;;;;35.71;26.96;100584.31;5092823;27;46886;-73
2023/06/09 09:27:20;;;;;;;;;21.40;20.00;;;;;35.79;26.88;100588.16;5098825;27;45457;-72
2023/06/09 09:29:46;;;;;;;;;20.80;20.00;;;;;35.86;26.99;100583.03;5089972;27;45620;-72
2023/06/09 09:32:12;;;;;;;;;21.40;19.60;;;;;35.99;27.61;100589.25;5093473;27;45259;-72
2023/06/09 09:34:41;;;;;;;;;18.60;18.60;;;;;36.09;25.98;100586.59;5091729;27;45581;-73
2023/06/09 09:37:16;;;;;;;;;21.40;18.60;;;;;36.32;27.20;100579.06;5093326;27;45403;-73
2023/06/09 09:39:52;;;;;;;;;26.20;21.00;;;;;36.56;27.31;100588.97;5086128;27;45287;-72
2023/06/09 09:42:18;;;;;;;;;15.20;15.20;;;;;36.51;26.89;100565.41;5095057;27;46662;-72
2023/06/09 09:44:50;;;;;;;;;17.60;16.20;;;;;36.60;27.29;100572.03;5092893;27;45487;-72
2023/06/09 09:47:18;;;;;;;;;20.80;19.80;;;;;36.68;26.14;100565.84;5096959;27;45369;-73
2023/06/09 09:49:55;;;;;;;;;21.00;16.60;;;;;36.68;26.41;100560.34;5089507;27;45313;-73
2023/06/09 09:52:32;;;;;;;;;20.20;19.80;;;;;36.82;25.46;100561.84;5086022;27;45396;-72
2023/06/09 09:55:04;;;;;;;;;19.20;17.00;;;;;36.91;25.16;100561.88;5091066;27;45240;-73
2023/06/09 09:57:31;;;;;;;;;18.20;17.00;;;;;37.13;26.05;100559.97;5089658;27;45370;-73
2023/06/09 10:00:00;;;;;;;;;20.60;17.20;;;;;37.32;25.64;100557.25;5088869;27;45222;-73
2023/06/09 10:02:30;;;;;;;;;16.60;16.60;;;;;37.41;24.67;100553.63;5095581;27;45466;-74
2023/06/09 10:04:56;;;;;;;;;18.00;16.40;;;;;37.49;24.23;100557.63;5092392;27;45383;-74
2023/06/09 10:07:26;;;;;;;;;15.60;15.20;;;;;37.60;24.44;100543.69;5089823;27;45422;-73
2023/06/09 10:09:52;;;;;;;;;22.00;21.00;;;;;37.80;22.54;100552.84;5091375;27;45416;-74
2023/06/09 10:12:19;;;;;;;;;18.00;18.00;;;;;37.99;23.71;100552.00;5100469;27;45444;-74
2023/06/09 10:14:47;;;;;;;;;17.20;16.00;;;;;38.00;23.76;100550.97;5093584;27;45437;-74
2023/06/09 10:17:13;;;;;;;;;17.20;16.20;;;;;37.87;22.79;100536.56;5096703;27;45308;-74
2023/06/09 10:19:40;;;;;;;;;16.75;16.75;;;;;38.09;23.96;100538.19;5085514;27;45446;-73
2023/06/09 10:22:06;;;;;;;;;16.20;16.00;;;;;38.18;22.72;100549.22;5090510;27;45366;-73
2023/06/09 10:24:33;;;;;;;;;22.00;21.25;;;;;38.24;23.79;100539.47;5089331;27;45479;-72
2023/06/09 10:26:59;;;;;;;;;17.40;16.60;;;;;38.32;22.56;100538.72;5095022;27;45333;-73
2023/06/09 10:29:25;;;;;;;;;17.60;17.00;;;;;38.50;22.62;100531.44;5089491;27;45350;-73
2023/06/09 10:31:53;;;;;;;;;16.20;16.20;;;;;38.67;22.46;100536.19;5089080;27;45353;-74
2023/06/09 10:34:20;;;;;;;;;17.80;17.00;;;;;38.81;23.15;100545.00;5095083;27;45362;-73
2023/06/09 10:36:46;;;;;;;;;18.80;17.80;;;;;38.77;22.29;100540.81;5087605;27;45488;-74
2023/06/09 10:39:25;;;;;;;;;17.80;16.60;;;;;38.85;21.33;100539.03;5084252;27;45330;-74
2023/06/09 10:42:05;;;;;;;;;15.60;15.60;;;;;38.96;22.17;100543.50;5088308;27;45679;-74
2023/06/09 10:44:49;;;;;;;;;13.80;13.40;;;;;39.11;21.95;100541.97;5093280;27;45366;-73
2023/06/09 10:47:41;;;;;;;;;17.20;17.20;;;;;39.16;22.02;100545.16;5098363;27;45791;-71
2023/06/09 10:50:20;;;;;;;;;18.80;18.80;;;;;39.26;22.43;100530.38;5091261;27;45757;-71
2023/06/09 10:52:45;;;;;;;;;10.60;7.00;;;;;39.44;21.62;100536.84;5082420;27;46196;-72
2023/06/09 10:55:17;;;;;;;;;17.25;15.75;;;;;39.50;20.22;100543.66;5089872;27;45479;-71
2023/06/09 10:57:43;;;;;;;;;19.20;18.20;;;;;39.76;20.62;100533.56;5083729;27;45289;-73
2023/06/09 11:00:11;;;;;;;;;19.00;16.00;;;;;39.93;21.69;100548.41;5091511;27;45279;-74
2023/06/09 11:02:46;;;;;;;;;18.40;16.20;;;;;39.38;19.15;100543.00;5097573;27;45459;-72
2023/06/09 11:05:13;;;;;;;;;15.40;15.40;;;;;39.50;19.28;100540.91;5089422;27;45279;-72
2023/06/09 11:07:43;;;;;;;;;15.00;14.20;;;;;39.44;21.04;100530.44;5094677;27;45424;-72
2023/06/09 11:10:11;;;;;;;;;10.80;10.80;;;;;39.38;20.07;100534.69;5089590;27;45528;-73